Sagehen Creek Weather observations

Data are for observation ending at time listed.
 Day   Time    Ave.   Ave.  Ave.  Vector   Max.   Stn.    Total    Solar   Ave.  
  of    of     Air    Rel.  Wind   Wind    Wind   Baro.  Precip.   Rad.    Soil  
Year   Day     Temp.  Hum.  Speed  Dir.    Gust   Pres.                    Temp. 
2016   (PST)    F      %     mph   deg.    mph     mb.     in.     W/m2     F   
------------------------------------------------------------------------------
 342   18:00   26.5    86    1.6    77      4.2   834.4   13.80       0    999.0
 342   18:10   26.2    86    1.9    73      4.4   834.4   13.80       0    999.0
 342   18:20   25.6    86    1.7    37      3.6   834.2   13.80       0    999.0
 342   18:30   25.2    86    1.7    59      4.3   834.0   13.80       0    999.0
 342   18:40   24.9    87    2.1    84      4.7   834.3   13.80       0    999.0
 342   18:50   24.8    88    1.9    69      4.4   834.3   13.80       0    999.0
 342   19:00   24.9    88    1.9    85      4.9   834.2   13.81       0    999.0
 342   19:10   24.8    88    0.9    71      2.7   834.1   13.81       0    999.0
 342   19:20   24.8    89    0.7    42      2.0   834.0   13.82       0    999.0
 342   19:30   24.7    89    0.8    52      2.4   833.9   13.83       0    999.0
 342   19:40   24.8    90    0.7    81      2.1   834.1   13.85       0    999.0
 342   19:50   24.8    90    1.9    91      3.5   834.0   13.85       0    999.0
 342   20:00   24.9    91    1.8   123      4.0   834.0   13.85       0    999.0
 342   20:10   24.8    91    1.9    86      5.1   833.9   13.86       0    999.0
 342   20:20   24.7    91    3.2    85      7.1   833.8   13.86       0    999.0
 342   20:30   24.7    91    1.7    87      6.0   833.7   13.86       0    999.0
 342   20:40   24.7    91    2.0    95      6.0   833.4   13.87       0    999.0
 342   20:50   24.7    91    1.9   102      5.9   833.6   13.87       0    999.0
 342   21:00   24.7    91    2.2   110      5.2   833.7   13.89       0    999.0
 342   21:10   24.9    91    4.1    88     11.0   833.9   13.89       0    999.0
 342   21:20   25.6    92    5.3    77     10.6   833.5   13.90       0    999.0
 342   21:30   27.2    93    5.8    82     12.0   833.2   13.90       0    999.0
 342   21:40   27.5    92    4.2    66     12.2   833.7   13.90       0    999.0
 342   21:50   26.5    91    3.8    62     10.5   833.6   13.91       0    999.0
 342   22:00   26.7    92    3.4    67      8.5   833.5   13.91       0    999.0
 342   22:10   27.8    92    3.6    75      6.3   833.4   13.91       0    999.0
 342   22:20   27.1    92    2.0    44      6.5   833.4   13.92       0    999.0
 342   22:30   28.2    93    1.9   350      3.4   833.4   13.93       0    999.0
 342   22:40   28.2    93    2.3    73      5.7   833.1   13.94       0    999.0
 342   22:50   26.8    92    2.6    76      5.3   833.4   13.95       0    999.0
 342   23:00   25.9    91    3.0    94      5.9   833.7   13.95       0    999.0
 342   23:10   25.7    92    2.8    87      6.2   833.2   13.96       0    999.0
 342   23:20   25.8    92    2.0   116      5.5   833.4   13.97       0    999.0
 342   23:30   26.2    92    2.1    99      4.5   833.6   13.97       0    999.0
 342   23:40   26.3    92    2.1    94      5.3   833.6   13.98       0    999.0
 342   23:50   26.7    93    2.7    91      5.4   833.6   13.99       0    999.0
 343    0:00   26.6    93    1.4   140      3.2   833.6   14.00       0    999.0
 343    0:10   26.6    93    2.2    92      4.7   833.1   14.00       0    999.0
 343    0:20   26.8    93    1.4    91      4.8   833.2   14.01       0    999.0
 343    0:30   26.8    93    0.8    94      3.4   833.3   14.02       0    999.0
 343    0:40   26.9    93    1.4    81      4.5   833.2   14.02       0    999.0
 343    0:50   27.1    93    1.0   335      3.0   833.1   14.02       0    999.0
 343    1:00   27.3    93    1.2    73      3.5   833.0   14.03       0    999.0
 343    1:10   27.5    93    0.8   346      2.5   833.0   14.04       0    999.0
 343    1:20   27.8    93    0.9    54      3.2   833.2   14.04       0    999.0
 343    1:30   28.4    94    1.1     4      2.9   833.3   14.04       0    999.0
 343    1:40   30.0    94    1.5    46      4.1   833.2   14.04       0    999.0
 343    1:50   30.7    94    1.1   331      2.6   833.3   14.05       0    999.0
 343    2:00   31.1    94    1.1   356      3.2   833.4   14.05       0    999.0
 343    2:10   31.3    94    0.9    39      2.9   833.3   14.05       0    999.0
 343    2:20   31.9    94    1.3   358      3.2   833.3   14.06       0    999.0
 343    2:30   32.0    94    0.9    22      2.6   833.4   14.06       0    999.0
 343    2:40   32.1    94    1.2   354      2.7   833.5   14.06       0    999.0
 343    2:50   32.3    94    0.9     4      2.9   833.1   14.06       0    999.0
 343    3:00   32.2    94    1.3    98      3.4   832.8   14.07       0    999.0
 343    3:10   32.3    94    1.0     8      3.6   833.3   14.07       0    999.0
 343    3:20   32.3    94    1.7    53      4.8   833.1   14.07       0    999.0
 343    3:30   32.3    94    1.0    27      3.1   832.9   14.07       0    999.0
 343    3:40   32.3    94    1.2     3      3.1   832.9   14.07       0    999.0
 343    3:50   32.5    94    2.5    55      6.9   833.1   14.07       0    999.0
 343    4:00   32.6    94    1.3    37      3.0   833.4   14.08       0    999.0
 343    4:10   32.4    94    1.6    80      3.9   833.1   14.08       0    999.0
 343    4:20   32.1    94    1.7    81      6.2   833.1   14.08       0    999.0
 343    4:30   32.2    94    1.4    68      4.0   833.1   14.08       0    999.0
 343    4:40   32.2    94    0.9    32      2.1   833.1   14.08       0    999.0
 343    4:50   32.3    94    0.9   324      2.9   833.2   14.09       0    999.0
 343    5:00   32.5    94    1.4    28      4.8   833.2   14.09       0    999.0
 343    5:10   32.5    94    2.0    67      8.8   833.3   14.09       0    999.0
 343    5:20   32.6    95    2.1    96      5.4   833.2   14.09       0    999.0
 343    5:30   32.9    95    1.6    45      4.5   833.1   14.09       0    999.0
 343    5:40   33.6    95    2.1    28      6.5   833.2   14.09       0    999.0
 343    5:50   34.2    94    1.5   355      6.2   833.1   14.09       0    999.0
 343    6:00   33.7    95    1.8    76      6.7   833.0   14.09       0    999.0
 343    6:10   33.4    95    1.7    61      4.0   833.6   14.09       0    999.0
 343    6:20   32.9    95    2.1    59      7.3   833.7   14.09       0    999.0
 343    6:30   33.1    95    2.0    12      6.1   833.7   14.09       0    999.0
 343    6:40   34.0    95    2.2    66      6.6   834.0   14.09       0    999.0
 343    6:50   34.4    95    1.8   358      4.7   833.9   14.09       0    999.0
 343    7:00   34.9    94    2.0   172      5.5   833.9   14.09       0    999.0
 343    7:10   35.1    94    1.6   331      5.9   834.1   14.09       1    999.0
 343    7:20   35.8    94    2.1   296      5.6   834.1   14.09       3    999.0
 343    7:30   35.9    94    1.7   280      8.6   834.1   14.09       5    999.0
 343    7:40   36.7    94    2.6   190      6.1   833.6   14.09      10    999.0
 343    7:50   37.1    94    2.1   259      6.6   833.9   14.09      18    999.0
 343    8:00   36.3    94    1.9    18      4.2   834.1   14.09      16    999.0
 343    8:10   35.9    94    1.3    20      2.8   833.8   14.09      23    999.0
 343    8:20   35.9    94    2.4    70      6.5   834.1   14.09      18    999.0
 343    8:30   36.7    94    1.8    13      3.7   834.3   14.09      22    999.0
 343    8:40   36.2    94    2.0    55      5.2     0.0   14.09      57    999.0
 343    8:50   36.8    94    1.8   241      6.0   431.1   14.10      51    999.0
 343    9:00   37.8    94    2.7   220      7.3   834.3   14.10     113    999.0
 343    9:10   38.6    94    3.2   253     10.0   834.0   14.10     117    999.0
 343    9:20   39.1    92    3.3   239      8.5   834.2   14.10     171    999.0
 343    9:30   39.4    89    3.8   245     10.5   834.3   14.10     201    999.0
 343    9:40   40.1    88    3.5   212      7.2   834.5   14.10     259    999.0
 343    9:50   40.4    86    4.1   269     11.8   834.5   14.10     251    999.0
 343   10:00   40.4    86    3.1   220      8.9   834.6   14.10     181    999.0
 343   10:10   40.5    86    4.0   216     11.9   834.9   14.10     229    999.0
 343   10:20   41.0    84    4.1   266     11.8   834.7   14.10     307    999.0
 343   10:30   41.6    82    3.3   237      6.8   834.6   14.10     322    999.0
 343   10:40   41.9    82    3.4   227      8.5   834.8   14.10     279    999.0
 343   10:50   41.2    82    3.1   220      9.1   834.8   14.10     232    999.0
 343   11:00   41.6    82    3.6   241     12.8   834.9   14.10     351    999.0
 343   11:10   42.1    80    3.4   221      7.0   834.7   14.10     255    999.0
 343   11:20   41.2    83    3.5   228     12.2   834.9   14.11     197    999.0
 343   11:30   41.2    83    4.1   257     14.7   835.0   14.11     268    999.0
 343   11:40   41.7    82    4.1   204     14.6   834.5   14.11     280    999.0
 343   11:50   41.9    81    4.8   260     13.8   834.5   14.10     308    999.0
 343   12:00   42.5    80    4.1   238     14.7   834.6   14.10     356    999.0
 343   12:10   42.5    79    3.2   219     12.5   834.4   14.11     249    999.0
 343   12:20   42.1    80    4.4   216     10.8   834.5   14.10     295    999.0
 343   12:30   42.5    78    3.8   265      7.9   834.6   14.11     248    999.0
 343   12:40   42.1    81    2.7   247      9.4   834.6   14.11     210    999.0
 343   12:50   42.2    80    3.7   244      9.7   834.8   14.11     269    999.0
 343   13:00   42.4    77    3.7   232      9.4   835.0   14.10     227    999.0
 343   13:10   42.6    75    3.7   229      8.9   834.6   14.11     184    999.0
 343   13:20   42.6    74    4.2   231     12.9   834.8   14.11     165    999.0
 343   13:30   42.2    75    3.6   228      9.0   835.0   14.11     157    999.0
 343   13:40   42.3    76    3.2   246      7.7   834.9   14.11     183    999.0
 343   13:50   42.5    75    3.5   239     10.6   835.0   14.11     171    999.0
 343   14:00   42.4    75    3.1   230      9.2   835.1   14.11     131    999.0
 343   14:10   42.3    73    4.1   221     14.6   834.9   14.11     104    999.0
 343   14:20   41.9    75    3.4   212      9.0   834.8   14.11      89    999.0
 343   14:30   41.6    76    2.4   229     10.7   834.7   14.11      64    999.0
 343   14:40   41.2    78    2.6   265      8.8   835.0   14.11      81    999.0
 343   14:50   41.4    76    3.6   238     11.6   834.9   14.11      80    999.0
 343   15:00   41.3    78    2.1   227      5.8   834.8   14.11      61    999.0
 343   15:10   40.9    80    1.9   352      8.0   835.4   14.11      38    999.0
 343   15:20   40.6    81    2.5   331      6.9   835.1   14.11      46    999.0
 343   15:30   41.0    80    2.0   310      5.7   834.8   14.11      32    999.0
 343   15:40   40.7    81    1.6    46      4.6   835.4   14.11      38    999.0
 343   15:50   40.8    81    2.0   241      5.4   835.1   14.11      24    999.0
 343   16:00   40.8    82    2.1    68      5.4   834.9   14.11      17    999.0
 343   16:10   40.2    83    2.8   272      8.6   835.6   14.11      14    999.0
 343   16:20   40.6    81    2.2   283     11.5   835.4   14.11      11    999.0
 343   16:30   40.9    79    2.5   226      8.5   835.2   14.11       8    999.0
 343   16:40   40.6    80    2.7   304      9.7   835.6   14.11       2    999.0
 343   16:50   39.9    81    2.3   294      8.0   835.7   14.11       1    999.0
 343   17:00   39.6    82    1.6     1      4.1   835.8   14.11       0    999.0
 343   17:10   39.6    83    3.0   201     10.3   836.0   14.11       0    999.0
 343   17:20   40.6    80    2.6   249      5.8   835.6   14.11       0    999.0
 343   17:30   40.6    81    2.7   182      7.4   835.1   14.11       0    999.0
 343   17:40   40.2    83    2.3   169     10.0   835.9   14.12       0    999.0
 343   17:50   39.8    83    2.0   267      5.0   835.7   14.12       0    999.0

Return to Sagehen Creek graphs page.


Western Regional Climate Center,wrcc@dri.edu